| time (UTC) | temp F | wind direction | speed MPH | gust MPH | rain 1hr in | rain 24hr in | rain mn in | humidity % | barometer mb |
| 20260904180126 | 93 | 193 | 5.0 | 7.0 | 0.00 | 0.00 | 0.00 | 42 | 1017.6 |
| 20260904175122 | 94 | 194 | 5.0 | 7.0 | 0.00 | 0.00 | 0.00 | 41 | 1017.6 |
| 20260904174120 | 96 | 186 | 4.0 | 7.0 | 0.00 | 0.00 | 0.00 | 38 | 1017.5 |
| 20260904173116 | 98 | 182 | 5.0 | 9.0 | 0.00 | 0.00 | 0.00 | 36 | 1017.5 |
| 20260904172110 | 101 | 198 | 4.0 | 6.0 | 0.00 | 0.00 | 0.00 | 33 | 1017.6 |
| 20260904171108 | 101 | 198 | 4.0 | 6.0 | 0.00 | 0.00 | 0.00 | 33 | 1017.6 |
| 20260904170106 | 102 | 190 | 3.0 | 5.0 | 0.00 | 0.00 | 0.00 | 33 | 1017.7 |
| 20260904165104 | 103 | 191 | 4.0 | 7.0 | 0.00 | 0.00 | 0.00 | 33 | 1017.7 |
| 20260904164100 | 103 | 191 | 4.0 | 7.0 | 0.00 | 0.00 | 0.00 | 33 | 1017.7 |
| 20260904163055 | 103 | 225 | 2.0 | 4.0 | 0.00 | 0.00 | 0.00 | 33 | 1017.7 |
| 20260904162052 | 103 | 90 | 1.0 | 2.0 | 0.00 | 0.00 | 0.00 | 33 | 1017.8 |
| 20260904161050 | 103 | 90 | 1.0 | 2.0 | 0.00 | 0.00 | 0.00 | 33 | 1017.8 |
| 20260904160045 | 103 | 64 | 2.0 | 2.0 | 0.00 | 0.00 | 0.00 | 34 | 1017.9 |
| 20260904153032 | 101 | 336 | 1.0 | 4.0 | 0.00 | 0.00 | 0.00 | 34 | 1018.1 |
| 20260904152026 | 101 | 212 | 3.0 | 7.0 | 0.00 | 0.00 | 0.00 | 35 | 1018.1 |
| 20260904151025 | 100 | 45 | 1.0 | 4.0 | 0.00 | 0.00 | 0.00 | 35 | 1018.1 |
| 20260904150019 | 100 | 54 | 2.0 | 5.0 | 0.00 | 0.00 | 0.00 | 37 | 1018.3 |
| 20260904145017 | 99 | 90 | 1.0 | 5.0 | 0.00 | 0.00 | 0.00 | 36 | 1018.3 |
| 20260904144012 | 99 | 42 | 6.0 | 13.0 | 0.00 | 0.00 | 0.00 | 37 | 1018.4 |
| 20260904143010 | 98 | 284 | 2.0 | 8.0 | 0.00 | 0.00 | 0.00 | 38 | 1018.4 |
| 20260904142006 | 98 | 203 | 2.0 | 3.0 | 0.00 | 0.00 | 0.00 | 39 | 1018.5 |
| 20260904141003 | 97 | 169 | 2.0 | 4.0 | 0.00 | 0.00 | 0.00 | 39 | 1018.6 |
| 20260904135957 | 97 | 183 | 2.0 | 2.0 | 0.00 | 0.00 | 0.00 | 39 | 1018.7 |
| 20260904134954 | 96 | 90 | 1.0 | 2.0 | 0.00 | 0.00 | 0.00 | 40 | 1018.7 |
| 20260904133950 | 96 | 123 | 2.0 | 4.0 | 0.00 | 0.00 | 0.00 | 40 | 1018.8 |
| 20260904132946 | 95 | 210 | 1.0 | 4.0 | 0.00 | 0.00 | 0.00 | 40 | 1018.9 |
| 20260904131940 | 95 | 270 | 2.0 | 7.0 | 0.00 | 0.00 | 0.00 | 40 | 1019.0 |
| 20260904130938 | 95 | 159 | 2.0 | 6.0 | 0.00 | 0.00 | 0.00 | 41 | 1019.0 |
| 20260904125933 | 94 | 175 | 2.0 | 4.0 | 0.00 | 0.00 | 0.00 | 42 | 1019.3 |
| 20260904124930 | 92 | 191 | 2.0 | 4.0 | 0.00 | 0.00 | 0.00 | 43 | 1019.4 |
| 20260904123927 | 92 | 105 | 2.0 | 4.0 | 0.00 | 0.00 | 0.00 | 44 | 1019.5 |
| 20260904122923 | 91 | 333 | 2.0 | 5.0 | 0.00 | 0.00 | 0.00 | 43 | 1019.6 |
| 20260904121918 | 91 | 104 | 2.0 | 4.0 | 0.00 | 0.00 | 0.00 | 44 | 1019.6 |
| 20260904120915 | 91 | 175 | 1.0 | 4.0 | 0.00 | 0.00 | 0.00 | 45 | 1019.8 |
| 20260904115912 | 90 | 164 | 3.0 | 4.0 | 0.00 | 0.00 | 0.00 | 45 | 1019.8 |
| 20260904114910 | 89 | 171 | 2.0 | 4.0 | 0.00 | 0.00 | 0.00 | 46 | 1019.9 |
| 20260904113905 | 89 | 180 | 1.0 | 4.0 | 0.00 | 0.00 | 0.00 | 46 | 1020.0 |
| 20260904112859 | 89 | 198 | 2.0 | 6.0 | 0.00 | 0.00 | 0.00 | 47 | 1020.1 |
| 20260904111855 | 88 | 90 | 1.0 | 4.0 | 0.00 | 0.00 | 0.00 | 48 | 1020.2 |
| 20260904110852 | 88 | 70 | 2.0 | 5.0 | 0.00 | 0.00 | 0.00 | 48 | 1020.2 |
| 20260904105847 | 87 | 211 | 2.0 | 6.0 | 0.00 | 0.00 | 0.00 | 48 | 1020.3 |
| 20260904104846 | 87 | 237 | 2.0 | 4.0 | 0.00 | 0.00 | 0.00 | 48 | 1020.4 |
| 20260904103842 | 86 | 270 | 2.0 | 5.0 | 0.00 | 0.00 | 0.00 | 48 | 1020.5 |
| 20260904102838 | 86 | 310 | 1.0 | 4.0 | 0.00 | 0.00 | 0.00 | 49 | 1020.6 |
| 20260904101835 | 86 | 213 | 2.0 | 9.0 | 0.00 | 0.00 | 0.00 | 51 | 1020.7 |
| 20260904100832 | 85 | 180 | 2.0 | 4.0 | 0.00 | 0.00 | 0.00 | 51 | 1020.8 |
| 20260904095830 | 85 | 168 | 3.0 | 7.0 | 0.00 | 0.00 | 0.00 | 52 | 1020.8 |
| 20260904094826 | 84 | 176 | 3.0 | 7.0 | 0.00 | 0.00 | 0.00 | 52 | 1020.9 |
| 20260904085809 | 81 | 182 | 2.0 | 7.0 | 0.00 | 0.00 | 0.00 | 54 | 1021.1 |
| 20260904084806 | 81 | 270 | 1.0 | 4.0 | 0.00 | 0.00 | 0.00 | 55 | 1021.1 |
| 20260904083802 | 80 | 270 | 1.0 | 3.0 | 0.00 | 0.00 | 0.00 | 55 | 1021.1 |
| 20260904082756 | 80 | 270 | 1.0 | 2.0 | 0.00 | 0.00 | 0.00 | 55 | 1021.0 |
| 20260904081752 | 80 | 270 | 2.0 | 4.0 | 0.00 | 0.00 | 0.00 | 56 | 1021.0 |
| 20260904080746 | 79 | 191 | 1.0 | 3.0 | 0.00 | 0.00 | 0.00 | 56 | 1021.1 |
| 20260904075740 | 79 | 191 | 1.0 | 3.0 | 0.00 | 0.00 | 0.00 | 57 | 1021.0 |
| 20260904074736 | 77 | 184 | 1.0 | 2.0 | 0.00 | 0.00 | 0.00 | 59 | 1020.9 |
| 20260904073730 | 77 | 138 | 2.0 | 4.0 | 0.00 | 0.00 | 0.00 | 61 | 1020.9 |
| 20260904072726 | 76 | 145 | 1.0 | 3.0 | 0.00 | 0.00 | 0.00 | 62 | 1020.8 |
| 20260904071725 | 76 | 315 | 1.0 | 2.0 | 0.00 | 0.00 | 0.00 | 61 | 1020.8 |
| 20260904062703 | 72 | 90 | 1.0 | 1.0 | 0.00 | 0.00 | 0.00 | 65 | 1020.6 |
| 20260904061700 | 72 | 90 | 1.0 | 1.0 | 0.00 | 0.00 | 0.00 | 66 | 1020.6 |
| 20260904060655 | 72 | 90 | 1.0 | 2.0 | 0.00 | 0.00 | 0.00 | 66 | 1020.6 |
| 20260904055650 | 72 | 90 | 1.0 | 2.0 | 0.00 | 0.00 | 0.00 | 66 | 1020.6 |
| 20260904054648 | 72 | 90 | 1.0 | 2.0 | 0.00 | 0.00 | 0.00 | 67 | 1020.6 |
| 20260904053642 | 71 | 90 | 2.0 | 2.0 | 0.00 | 0.00 | 0.00 | 66 | 1020.5 |
| 20260904052636 | 71 | 90 | 2.0 | 2.0 | 0.00 | 0.00 | 0.00 | 66 | 1020.3 |
| 20260904051635 | 71 | 90 | 1.0 | 2.0 | 0.00 | 0.00 | 0.00 | 66 | 1020.2 |
| 20260904050629 | 72 | 90 | 1.0 | 2.0 | 0.00 | 0.00 | 0.00 | 65 | 1020.2 |
| 20260904045626 | 72 | 90 | 1.0 | 2.0 | 0.00 | 0.00 | 0.00 | 66 | 1020.1 |
| 20260904044622 | 72 | 90 | 1.0 | 2.0 | 0.00 | 0.00 | 0.00 | 65 | 1020.0 |
| 20260904043619 | 72 | 90 | 1.0 | 2.0 | 0.00 | 0.00 | 0.00 | 65 | 1020.0 |
| 20260904042616 | 72 | 90 | 1.0 | 2.0 | 0.00 | 0.00 | 0.00 | 65 | 1019.9 |
| 20260904041610 | 72 | 90 | 1.0 | 2.0 | 0.00 | 0.00 | 0.00 | 65 | 1019.9 |
| 20260904040607 | 72 | 90 | 1.0 | 2.0 | 0.00 | 0.00 | 0.00 | 65 | 1019.9 |